createdAt,value
2023-03-05T00:02:11.997Z,51.26
2023-03-05T00:04:40.051Z,52.07
2023-03-05T00:07:09.409Z,51.48
2023-03-05T00:09:36.132Z,52.61
2023-03-05T00:12:02.964Z,53.41
2023-03-05T00:14:49.642Z,53.04
2023-03-05T00:17:16.357Z,54.48
2023-03-05T00:19:44.402Z,52.26
2023-03-05T00:22:11.080Z,51.61
2023-03-05T00:24:37.816Z,52.14
2023-03-05T00:27:04.984Z,50.86
2023-03-05T00:29:31.868Z,50.89
2023-03-05T00:31:58.689Z,50.12
2023-03-05T00:34:25.400Z,49.98
2023-03-05T00:36:53.288Z,50.16
2023-03-05T00:39:21.393Z,50.39
2023-03-05T00:41:48.871Z,50.49
2023-03-05T00:44:15.867Z,49.80
2023-03-05T00:46:42.766Z,49.97
2023-03-05T00:49:10.540Z,49.47
2023-03-05T00:51:37.535Z,49.26
2023-03-05T00:54:05.709Z,50.97
2023-03-05T00:56:33.039Z,49.75
2023-03-05T00:59:00.084Z,49.06
2023-03-05T01:01:26.865Z,50.67
2023-03-05T01:03:53.642Z,50.78
2023-03-05T01:06:20.316Z,51.45
2023-03-05T01:08:47.161Z,50.95
2023-03-05T01:11:14.016Z,49.79
2023-03-05T01:13:41.057Z,50.32
2023-03-05T01:16:08.981Z,51.27
2023-03-05T01:18:37.493Z,50.93
2023-03-05T01:21:04.587Z,51.22
2023-03-05T01:23:31.343Z,49.91
2023-03-05T01:26:00.325Z,49.40
2023-03-05T01:28:28.483Z,49.01
2023-03-05T01:30:55.288Z,50.20
2023-03-05T01:33:23.455Z,53.27
2023-03-05T01:35:50.575Z,53.80
2023-03-05T01:38:17.619Z,53.10
2023-03-05T01:40:44.378Z,51.37
2023-03-05T01:43:10.942Z,51.39
2023-03-05T01:45:38.973Z,52.14
2023-03-05T01:48:05.666Z,55.07
2023-03-05T01:50:33.543Z,55.53
2023-03-05T01:53:05.979Z,55.91
2023-03-05T01:55:34.779Z,55.14
2023-03-05T01:58:13.149Z,56.17
2023-03-05T02:00:45.949Z,56.44
2023-03-05T02:03:17.252Z,55.47
2023-03-05T02:05:44.227Z,55.07
2023-03-05T02:08:14.235Z,54.02
2023-03-05T02:10:48.056Z,53.64
2023-03-05T02:13:24.091Z,51.59
2023-03-05T02:15:53.177Z,50.78
2023-03-05T02:18:22.260Z,51.18
2023-03-05T02:20:56.220Z,51.81
2023-03-05T02:23:30.953Z,53.30
2023-03-05T02:25:57.675Z,52.57
2023-03-05T02:28:34.609Z,53.39
2023-03-05T02:31:01.399Z,55.63
2023-03-05T02:33:28.437Z,56.66
2023-03-05T02:35:55.181Z,57.87
2023-03-05T02:38:22.437Z,59.95
2023-03-05T02:40:49.113Z,61.38
2023-03-05T02:43:15.820Z,61.30
2023-03-05T02:45:42.559Z,62.26
2023-03-05T02:48:11.467Z,62.29
2023-03-05T02:50:38.757Z,63.00
2023-03-05T02:53:06.078Z,63.41
2023-03-05T02:55:33.046Z,63.88
2023-03-05T02:58:00.018Z,63.81
2023-03-05T03:00:26.774Z,63.47
2023-03-05T03:02:53.618Z,64.39
2023-03-05T03:05:20.376Z,64.37
2023-03-05T03:07:47.139Z,64.95
2023-03-05T03:10:13.768Z,63.39
2023-03-05T03:12:42.905Z,64.13
2023-03-05T03:15:12.405Z,64.08
2023-03-05T03:17:39.481Z,65.15
2023-03-05T03:20:08.856Z,64.61
2023-03-05T03:22:36.115Z,64.64
2023-03-05T03:25:05.319Z,64.32
2023-03-05T03:27:32.093Z,64.52
2023-03-05T03:29:59.473Z,65.33
2023-03-05T03:32:26.172Z,65.60
2023-03-05T03:34:52.901Z,65.73
2023-03-05T03:37:19.685Z,66.17
2023-03-05T03:39:46.319Z,66.74
2023-03-05T03:42:12.934Z,65.13
2023-03-05T03:44:39.569Z,63.79
2023-03-05T03:47:06.357Z,65.76
2023-03-05T03:49:33.008Z,66.12
2023-03-05T03:51:59.681Z,65.63
2023-03-05T03:54:26.314Z,66.98
2023-03-05T03:56:53.084Z,67.00
2023-03-05T03:59:19.825Z,65.77
2023-03-05T04:01:46.579Z,67.05
2023-03-05T04:04:14.150Z,66.61
2023-03-05T04:06:41.478Z,66.95
2023-03-05T04:09:08.616Z,66.49
2023-03-05T04:11:37.038Z,67.71
2023-03-05T04:14:05.175Z,68.00
2023-03-05T04:16:32.140Z,68.39
2023-03-05T04:18:58.812Z,69.87
2023-03-05T04:21:25.655Z,69.54
2023-03-05T04:23:52.276Z,69.72
2023-03-05T04:26:19.050Z,69.76
2023-03-05T04:28:47.139Z,69.85
2023-03-05T04:31:13.893Z,69.73
2023-03-05T04:33:40.644Z,69.92
2023-03-05T04:36:08.449Z,68.66
2023-03-05T04:38:35.073Z,68.43
2023-03-05T04:41:01.702Z,69.11
2023-03-05T04:43:28.348Z,68.64
2023-03-05T04:45:55.585Z,68.95
2023-03-05T04:48:22.222Z,69.11
2023-03-05T04:50:48.900Z,69.37
2023-03-05T04:53:15.509Z,68.85
2023-03-05T04:55:43.574Z,68.89
2023-03-05T04:58:10.407Z,67.73
2023-03-05T05:00:37.066Z,68.31
2023-03-05T05:03:04.214Z,68.39
2023-03-05T05:05:30.939Z,67.45
2023-03-05T05:07:59.260Z,67.78
2023-03-05T05:10:26.872Z,68.16
2023-03-05T05:12:54.159Z,67.25
2023-03-05T05:15:20.971Z,67.27
2023-03-05T05:17:47.994Z,69.04
2023-03-05T05:20:16.824Z,68.47
2023-03-05T05:22:44.263Z,67.98
2023-03-05T05:25:11.380Z,67.58
2023-03-05T05:27:39.955Z,67.65
2023-03-05T05:30:07.481Z,68.52
2023-03-05T05:32:34.188Z,66.59
2023-03-05T05:35:00.878Z,67.43
2023-03-05T05:37:27.586Z,66.67
2023-03-05T05:39:54.368Z,66.88
2023-03-05T05:42:23.711Z,65.97
2023-03-05T05:44:50.483Z,65.35
2023-03-05T05:47:18.353Z,65.14
2023-03-05T05:49:44.967Z,65.95
2023-03-05T05:52:11.869Z,66.22
2023-03-05T05:54:39.248Z,66.24
2023-03-05T05:57:06.580Z,68.45
2023-03-05T05:59:33.433Z,68.68
2023-03-05T06:02:00.275Z,68.79
2023-03-05T06:04:26.943Z,68.30
2023-03-05T06:06:53.669Z,68.97
2023-03-05T06:09:21.420Z,67.73
2023-03-05T06:11:48.052Z,65.81
2023-03-05T06:14:14.715Z,66.43
2023-03-05T06:16:41.658Z,62.92
2023-03-05T06:19:11.341Z,63.65
2023-03-05T06:21:38.195Z,61.54
2023-03-05T06:24:05.259Z,61.18
2023-03-05T06:26:32.885Z,59.06
2023-03-05T06:28:59.621Z,57.89
2023-03-05T06:31:28.366Z,59.78
2023-03-05T06:33:58.719Z,59.67
2023-03-05T06:36:26.049Z,59.98
2023-03-05T06:38:54.895Z,58.97
2023-03-05T06:41:24.747Z,62.37
2023-03-05T06:43:51.517Z,64.01
2023-03-05T06:46:22.203Z,64.78
2023-03-05T06:48:50.468Z,64.64
2023-03-05T06:51:26.053Z,64.56
2023-03-05T06:53:54.327Z,67.71
2023-03-05T06:56:21.783Z,66.91
2023-03-05T06:58:51.108Z,66.98
2023-03-05T07:01:19.043Z,67.03
2023-03-05T07:03:49.758Z,67.44
2023-03-05T07:06:17.045Z,66.96
2023-03-05T07:08:44.561Z,66.51
2023-03-05T07:11:13.764Z,65.89
2023-03-05T07:13:40.922Z,67.01
2023-03-05T07:16:10.529Z,66.02
2023-03-05T07:18:37.178Z,67.11
2023-03-05T07:21:08.864Z,65.95
2023-03-05T07:23:36.782Z,64.66
2023-03-05T07:26:05.596Z,66.08
2023-03-05T07:28:33.680Z,66.01
2023-03-05T07:31:06.850Z,65.17
2023-03-05T07:33:34.297Z,65.19
2023-03-05T07:36:01.262Z,64.68
2023-03-05T07:38:30.486Z,63.45
2023-03-05T07:40:57.483Z,60.42
2023-03-05T07:43:24.116Z,60.95
2023-03-05T07:45:50.868Z,58.24
2023-03-05T07:48:19.329Z,55.90
2023-03-05T07:50:46.301Z,55.00
2023-03-05T07:53:13.316Z,54.99
2023-03-05T07:55:44.905Z,53.32
2023-03-05T07:58:13.519Z,52.24
2023-03-05T08:00:41.048Z,51.36
2023-03-05T08:03:07.750Z,50.30
2023-03-05T08:05:34.496Z,51.37
2023-03-05T08:08:01.102Z,51.74
2023-03-05T08:10:27.763Z,52.42
2023-03-05T08:12:54.502Z,54.88
2023-03-05T08:15:21.146Z,56.94
2023-03-05T08:17:47.798Z,57.38
2023-03-05T08:20:14.470Z,57.33
2023-03-05T08:22:42.501Z,56.25
2023-03-05T08:25:09.374Z,55.45
2023-03-05T08:27:39.997Z,56.28
2023-03-05T08:30:08.220Z,55.55
2023-03-05T08:32:35.123Z,55.35
2023-03-05T08:35:01.941Z,54.18
2023-03-05T08:37:29.005Z,53.42
2023-03-05T08:39:56.664Z,54.05
2023-03-05T08:42:24.657Z,54.26
2023-03-05T08:44:51.665Z,54.94
2023-03-05T08:47:18.792Z,57.86
2023-03-05T08:49:45.707Z,57.21
2023-03-05T08:52:12.806Z,57.06
2023-03-05T08:54:39.496Z,55.46
2023-03-05T08:57:06.472Z,56.87
2023-03-05T08:59:33.313Z,57.18
2023-03-05T09:02:01.819Z,57.11
2023-03-05T09:04:31.132Z,56.51
2023-03-05T09:06:57.905Z,55.27
2023-03-05T09:09:24.995Z,56.11
2023-03-05T09:11:52.952Z,55.70
2023-03-05T09:14:20.669Z,57.40
2023-03-05T09:16:48.579Z,57.23
2023-03-05T09:19:15.305Z,56.29
2023-03-05T09:21:42.169Z,56.35
2023-03-05T09:24:09.405Z,56.59
2023-03-05T09:26:36.167Z,54.67
2023-03-05T09:29:03.029Z,55.23
2023-03-05T09:31:30.259Z,54.98
2023-03-05T09:33:56.985Z,54.09
2023-03-05T09:36:29.687Z,54.78
2023-03-05T09:38:57.037Z,55.63
2023-03-05T09:41:57.516Z,54.54
2023-03-05T09:45:01.696Z,53.36
2023-03-05T09:47:44.509Z,55.09
2023-03-05T09:50:34.816Z,54.58
2023-03-05T09:53:11.725Z,55.19
2023-03-05T09:55:43.728Z,54.56
2023-03-05T09:58:22.293Z,55.80
2023-03-05T10:01:04.389Z,55.63
2023-03-05T10:03:50.492Z,56.12
2023-03-05T10:06:25.419Z,56.23
2023-03-05T10:09:01.032Z,56.53
2023-03-05T10:11:42.476Z,54.71
2023-03-05T10:14:27.775Z,54.31
2023-03-05T10:17:17.106Z,52.15
2023-03-05T10:19:52.592Z,52.17
2023-03-05T10:22:34.881Z,52.81
2023-03-05T10:25:16.683Z,52.03
2023-03-05T10:28:00.236Z,51.80
2023-03-05T10:30:47.902Z,53.97
2023-03-05T10:33:24.296Z,52.72
2023-03-05T10:36:28.652Z,54.33
2023-03-05T10:39:04.511Z,54.34
2023-03-05T10:41:52.090Z,53.19
2023-03-05T10:44:44.396Z,53.64
2023-03-05T10:47:44.652Z,53.88
2023-03-05T10:50:20.002Z,54.98
2023-03-05T10:53:11.087Z,53.08
2023-03-05T10:55:37.761Z,54.79
2023-03-05T10:58:15.849Z,55.21
2023-03-05T11:01:06.492Z,55.93
2023-03-05T11:03:51.211Z,56.20
2023-03-05T11:06:35.978Z,54.57
2023-03-05T11:09:22.912Z,54.67
2023-03-05T11:12:12.557Z,56.12
2023-03-05T11:14:44.170Z,56.96
2023-03-05T11:17:34.153Z,56.82
2023-03-05T11:20:27.453Z,57.91
2023-03-05T11:23:20.316Z,56.19
2023-03-05T11:25:55.739Z,56.61
2023-03-05T11:28:32.912Z,56.16
2023-03-05T11:31:22.092Z,55.90
2023-03-05T11:33:56.699Z,55.11
2023-03-05T11:36:27.140Z,55.04
2023-03-05T11:38:56.521Z,53.39
2023-03-05T11:41:32.162Z,54.13
2023-03-05T11:44:03.119Z,55.68
2023-03-05T11:46:56.721Z,55.60
2023-03-05T11:49:27.983Z,55.85
2023-03-05T11:52:28.621Z,56.20
2023-03-05T11:55:04.406Z,55.92
2023-03-05T11:57:46.199Z,56.66
2023-03-05T12:00:17.632Z,57.87
2023-03-05T12:02:52.167Z,56.38
2023-03-05T12:05:21.222Z,55.52
2023-03-05T12:07:52.714Z,58.93
2023-03-05T12:10:24.800Z,57.48
2023-03-05T12:13:02.697Z,57.26
2023-03-05T12:15:29.266Z,57.41
2023-03-05T12:17:55.835Z,57.52
2023-03-05T12:20:54.351Z,55.54
2023-03-05T12:23:22.181Z,55.01
2023-03-05T12:25:50.285Z,55.16
2023-03-05T12:28:31.805Z,55.71
2023-03-05T12:31:01.520Z,54.68
2023-03-05T12:33:42.326Z,57.36
2023-03-05T12:36:21.201Z,57.01
2023-03-05T12:38:49.249Z,56.66
2023-03-05T12:41:27.489Z,57.12
2023-03-05T12:44:08.845Z,57.24
2023-03-05T12:47:05.941Z,56.54
2023-03-05T12:49:39.430Z,54.96
2023-03-05T12:52:24.558Z,54.17
2023-03-05T12:55:42.433Z,55.81
2023-03-05T12:58:35.910Z,57.26
2023-03-05T13:01:10.743Z,56.42
2023-03-05T13:04:00.819Z,55.99
2023-03-05T13:06:32.980Z,55.24
2023-03-05T13:09:18.722Z,54.85
2023-03-05T13:11:49.969Z,55.73
2023-03-05T13:14:28.772Z,53.82
2023-03-05T13:16:55.875Z,53.64
2023-03-05T13:19:23.185Z,54.19
2023-03-05T13:22:02.867Z,55.86
2023-03-05T13:24:30.656Z,55.20
2023-03-05T13:26:57.344Z,55.08
2023-03-05T13:29:26.767Z,54.27
2023-03-05T13:32:29.077Z,55.07
2023-03-05T13:34:59.596Z,55.02
2023-03-05T13:37:31.417Z,54.77
2023-03-05T13:40:02.578Z,54.86
2023-03-05T13:42:35.121Z,56.29
2023-03-05T13:45:04.701Z,56.67
2023-03-05T13:47:34.586Z,55.58
2023-03-05T13:50:07.744Z,55.07
2023-03-05T13:52:38.597Z,54.13
2023-03-05T13:55:15.766Z,55.07
2023-03-05T13:57:45.923Z,55.79
2023-03-05T14:00:48.390Z,55.26
2023-03-05T14:03:28.219Z,53.53
2023-03-05T14:05:55.022Z,52.57
2023-03-05T14:08:25.730Z,52.05
2023-03-05T14:11:14.649Z,52.31
2023-03-05T14:13:42.930Z,52.41
2023-03-05T14:16:11.742Z,52.79
2023-03-05T14:18:39.211Z,52.20
2023-03-05T14:21:09.211Z,52.98
2023-03-05T14:23:37.763Z,51.76
2023-03-05T14:26:23.940Z,52.94
2023-03-05T14:28:53.191Z,51.57
2023-03-05T14:31:23.522Z,51.52
2023-03-05T14:33:52.305Z,51.58
2023-03-05T14:36:27.587Z,50.65
2023-03-05T14:38:55.047Z,50.78
2023-03-05T14:41:41.599Z,50.89
2023-03-05T14:44:16.773Z,49.37
2023-03-05T14:46:48.018Z,49.19
2023-03-05T14:49:14.743Z,49.62
2023-03-05T14:51:44.893Z,49.08
2023-03-05T14:54:21.381Z,49.86
2023-03-05T14:56:48.668Z,50.14
2023-03-05T14:59:19.373Z,49.87
2023-03-05T15:01:46.141Z,49.90
2023-03-05T15:04:12.882Z,49.61
2023-03-05T15:06:41.702Z,48.86
2023-03-05T15:09:08.385Z,48.86
2023-03-05T15:11:35.071Z,49.02
2023-03-05T15:14:01.854Z,48.28
2023-03-05T15:16:28.794Z,48.11
2023-03-05T15:18:55.532Z,48.33
2023-03-05T15:21:22.286Z,47.96
2023-03-05T15:23:48.994Z,47.74
2023-03-05T15:26:16.077Z,48.52
2023-03-05T15:28:45.728Z,48.72
2023-03-05T15:31:12.465Z,49.09
2023-03-05T15:33:39.509Z,49.69
2023-03-05T15:36:06.759Z,47.56
2023-03-05T15:38:33.368Z,48.16
2023-03-05T15:41:01.773Z,48.16
2023-03-05T15:43:28.811Z,47.70
2023-03-05T15:45:55.446Z,48.33
2023-03-05T15:48:22.061Z,48.04
2023-03-05T15:50:48.659Z,47.62
2023-03-05T15:53:15.843Z,47.69
2023-03-05T15:55:45.092Z,47.02
2023-03-05T15:58:18.003Z,48.66
2023-03-05T16:00:45.394Z,48.43
2023-03-05T16:03:12.075Z,49.36
2023-03-05T16:05:39.207Z,47.73
2023-03-05T16:08:07.598Z,47.42
2023-03-05T16:10:35.154Z,47.51
2023-03-05T16:13:05.785Z,48.56
2023-03-05T16:15:34.329Z,47.92
2023-03-05T16:18:08.045Z,48.02
2023-03-05T16:20:34.727Z,46.33
2023-03-05T16:23:01.368Z,46.29
2023-03-05T16:25:28.874Z,46.02
2023-03-05T16:27:55.487Z,46.09
2023-03-05T16:30:22.317Z,46.03
2023-03-05T16:32:49.182Z,46.16
2023-03-05T16:35:15.799Z,46.15
2023-03-05T16:37:43.048Z,46.04
2023-03-05T16:40:12.080Z,46.04
2023-03-05T16:42:38.722Z,46.93
2023-03-05T16:45:07.560Z,47.23
2023-03-05T16:47:34.651Z,47.29
2023-03-05T16:50:01.339Z,48.31
2023-03-05T16:52:28.399Z,48.67
2023-03-05T16:54:55.083Z,48.16
2023-03-05T16:57:21.778Z,47.68
2023-03-05T16:59:48.411Z,47.86
2023-03-05T17:02:15.256Z,48.69
2023-03-05T17:04:42.894Z,49.24
2023-03-05T17:07:10.213Z,49.43
2023-03-05T17:09:38.714Z,48.81
2023-03-05T17:12:05.538Z,48.36
2023-03-05T17:14:32.176Z,49.33
2023-03-05T17:16:58.870Z,48.77
2023-03-05T17:19:25.485Z,48.75
2023-03-05T17:21:52.126Z,48.01
2023-03-05T17:24:22.285Z,49.18
2023-03-05T17:26:49.990Z,49.94
2023-03-05T17:29:16.961Z,50.15
2023-03-05T17:31:43.625Z,49.80
2023-03-05T17:34:10.239Z,49.82
2023-03-05T17:36:36.964Z,50.65
2023-03-05T17:39:06.028Z,51.43
2023-03-05T17:41:32.684Z,50.86
2023-03-05T17:43:59.365Z,52.23
2023-03-05T17:46:26.070Z,52.42
2023-03-05T17:48:52.761Z,52.73
2023-03-05T17:51:19.373Z,52.19
2023-03-05T17:53:46.036Z,53.40
2023-03-05T17:56:15.099Z,52.57
2023-03-05T17:58:41.751Z,52.65
2023-03-05T18:01:09.498Z,52.60
2023-03-05T18:03:36.907Z,53.42
2023-03-05T18:06:03.879Z,52.29
2023-03-05T18:08:30.697Z,52.16
2023-03-05T18:10:59.240Z,54.26
2023-03-05T18:13:25.920Z,55.87
2023-03-05T18:15:52.556Z,57.39
2023-03-05T18:18:19.314Z,59.32
2023-03-05T18:20:46.283Z,58.89
2023-03-05T18:23:13.210Z,59.08
2023-03-05T18:25:40.283Z,59.46
2023-03-05T18:28:10.028Z,60.14
2023-03-05T18:30:37.767Z,61.16
2023-03-05T18:33:05.075Z,60.84
2023-03-05T18:35:32.331Z,60.80
2023-03-05T18:38:00.298Z,60.60
2023-03-05T18:40:30.343Z,60.98
2023-03-05T18:42:59.777Z,62.81
2023-03-05T18:45:26.843Z,62.99
2023-03-05T18:47:53.610Z,63.33
2023-03-05T18:50:22.323Z,63.53
2023-03-05T18:52:52.527Z,63.80
2023-03-05T18:55:28.326Z,63.67
2023-03-05T18:57:58.722Z,62.84
2023-03-05T19:00:30.899Z,62.39
2023-03-05T19:02:58.757Z,60.17
2023-03-05T19:05:26.315Z,57.02
2023-03-05T19:07:54.854Z,55.96
2023-03-05T19:10:24.494Z,56.22
2023-03-05T19:13:24.588Z,54.53
2023-03-05T19:15:51.688Z,54.31
2023-03-05T19:18:25.871Z,54.38
2023-03-05T19:21:01.233Z,57.17
2023-03-05T19:23:27.924Z,57.67
2023-03-05T19:25:54.759Z,56.03
2023-03-05T19:28:21.484Z,58.87
2023-03-05T19:30:49.622Z,60.36
2023-03-05T19:33:18.362Z,57.92
2023-03-05T19:35:45.324Z,57.19
2023-03-05T19:38:12.073Z,56.33
2023-03-05T19:40:45.077Z,60.24
2023-03-05T19:43:12.814Z,61.73
2023-03-05T19:45:39.506Z,59.86
2023-03-05T19:48:07.128Z,57.40
2023-03-05T19:50:34.691Z,58.57
2023-03-05T19:53:01.742Z,57.98
2023-03-05T19:55:28.444Z,57.11
2023-03-05T19:57:55.560Z,57.78
2023-03-05T20:00:24.074Z,57.08
2023-03-05T20:02:50.859Z,57.25
2023-03-05T20:05:17.554Z,56.89
2023-03-05T20:07:44.322Z,57.67
2023-03-05T20:10:11.836Z,57.84
2023-03-05T20:12:38.529Z,57.68
2023-03-05T20:15:05.627Z,57.60
2023-03-05T20:17:32.262Z,57.85
2023-03-05T20:19:58.974Z,58.80
2023-03-05T20:22:25.655Z,57.89
2023-03-05T20:24:52.304Z,56.70
2023-03-05T20:27:18.945Z,56.78
2023-03-05T20:29:45.567Z,56.56
2023-03-05T20:32:12.208Z,54.88
2023-03-05T20:34:38.832Z,54.42
2023-03-05T20:37:05.780Z,54.01
2023-03-05T20:39:32.398Z,54.10
2023-03-05T20:41:59.010Z,53.54
2023-03-05T20:44:25.690Z,53.76
2023-03-05T20:47:08.670Z,54.31
2023-03-05T20:49:35.476Z,54.73
2023-03-05T20:52:02.327Z,55.30
2023-03-05T20:54:29.041Z,56.42
2023-03-05T20:56:55.759Z,57.08
2023-03-05T20:59:22.418Z,56.38
2023-03-05T21:01:49.078Z,56.47
2023-03-05T21:04:17.850Z,57.75
2023-03-05T21:06:44.462Z,57.40
2023-03-05T21:09:11.107Z,58.41
2023-03-05T21:11:37.736Z,58.71
2023-03-05T21:14:04.398Z,57.95
2023-03-05T21:16:31.234Z,57.75
2023-03-05T21:18:57.944Z,59.27
2023-03-05T21:21:25.248Z,59.84
2023-03-05T21:23:51.996Z,59.71
2023-03-05T21:26:18.796Z,58.87
2023-03-05T21:28:45.497Z,58.72
2023-03-05T21:31:21.550Z,60.65
2023-03-05T21:33:48.689Z,59.89
2023-03-05T21:36:15.777Z,60.34
2023-03-05T21:38:42.561Z,58.75
2023-03-05T21:41:10.743Z,58.75
2023-03-05T21:43:37.410Z,58.63
2023-03-05T21:46:04.280Z,59.31
2023-03-05T21:48:31.670Z,59.37
2023-03-05T21:50:58.351Z,59.37
2023-03-05T21:53:25.737Z,59.85
2023-03-05T21:56:07.357Z,59.46
2023-03-05T21:58:35.079Z,59.05
2023-03-05T22:01:02.390Z,59.09
2023-03-05T22:03:29.785Z,60.20
2023-03-05T22:05:56.763Z,59.78
2023-03-05T22:08:24.246Z,60.03
2023-03-05T22:10:51.358Z,60.04
2023-03-05T22:13:18.544Z,60.16
2023-03-05T22:15:49.408Z,59.77
2023-03-05T22:18:20.004Z,60.22
2023-03-05T22:20:47.077Z,59.31
2023-03-05T22:23:14.912Z,60.77
2023-03-05T22:25:42.725Z,61.03
2023-03-05T22:28:12.208Z,61.50
2023-03-05T22:30:45.742Z,60.74
2023-03-05T22:33:14.276Z,59.62
2023-03-05T22:35:42.011Z,61.12
2023-03-05T22:38:10.207Z,60.58
2023-03-05T22:40:40.291Z,60.70
2023-03-05T22:43:06.909Z,61.06
2023-03-05T22:45:33.519Z,60.61
2023-03-05T22:48:00.175Z,60.45
2023-03-05T22:50:27.166Z,59.62
2023-03-05T22:52:54.410Z,59.81
2023-03-05T22:55:21.504Z,59.79
2023-03-05T22:57:48.558Z,58.46
2023-03-05T23:00:19.447Z,58.45
2023-03-05T23:02:46.293Z,59.01
2023-03-05T23:05:13.042Z,62.83
2023-03-05T23:07:41.704Z,62.05
2023-03-05T23:10:12.755Z,60.19
2023-03-05T23:12:42.741Z,59.15
2023-03-05T23:15:13.598Z,64.62
2023-03-05T23:17:40.597Z,66.00
2023-03-05T23:20:09.092Z,64.56
2023-03-05T23:22:37.879Z,62.41
2023-03-05T23:25:05.197Z,60.89
2023-03-05T23:27:31.865Z,61.35
2023-03-05T23:30:21.758Z,59.34
2023-03-05T23:32:55.385Z,59.66
2023-03-05T23:35:28.532Z,62.00
2023-03-05T23:37:58.532Z,58.93
2023-03-05T23:40:34.826Z,58.92
2023-03-05T23:43:02.046Z,59.70
2023-03-05T23:45:29.584Z,60.49
2023-03-05T23:47:56.586Z,61.69
2023-03-05T23:50:31.162Z,63.34
2023-03-05T23:53:00.602Z,65.56
2023-03-05T23:55:33.031Z,64.55
2023-03-05T23:58:00.320Z,65.70
